createdAt,value
2022-09-28T00:00:25.179Z,55
2022-09-28T00:01:27.157Z,56
2022-09-28T00:02:29.144Z,56
2022-09-28T00:03:29.979Z,56
2022-09-28T00:04:30.957Z,57
2022-09-28T00:05:31.911Z,58
2022-09-28T00:06:32.964Z,58
2022-09-28T00:07:34.971Z,59
2022-09-28T00:08:36.909Z,60
2022-09-28T00:09:37.950Z,58
2022-09-28T00:10:38.981Z,58
2022-09-28T00:11:39.931Z,58
2022-09-28T00:12:40.930Z,58
2022-09-28T00:13:42.022Z,57
2022-09-28T00:14:44.094Z,57
2022-09-28T00:15:46.035Z,57
2022-09-28T00:16:47.048Z,57
2022-09-28T00:17:47.977Z,57
2022-09-28T00:18:49.071Z,57
2022-09-28T00:19:51.051Z,56
2022-09-28T00:20:52.931Z,57
2022-09-28T00:21:53.860Z,58
2022-09-28T00:22:54.897Z,58
2022-09-28T00:23:56.033Z,57
2022-09-28T00:24:56.891Z,57
2022-09-28T00:25:57.950Z,57
2022-09-28T00:26:58.952Z,57
2022-09-28T00:27:59.931Z,57
2022-09-28T00:29:02.837Z,57
2022-09-28T00:30:04.091Z,57
2022-09-28T00:31:06.089Z,57
2022-09-28T00:32:08.032Z,57
2022-09-28T00:33:10.092Z,56
2022-09-28T00:34:11.951Z,56
2022-09-28T00:35:12.970Z,56
2022-09-28T00:36:13.972Z,56
2022-09-28T00:37:14.936Z,57
2022-09-28T00:38:15.990Z,56
2022-09-28T00:39:17.035Z,56
2022-09-28T00:40:18.003Z,57
2022-09-28T00:41:19.051Z,57
2022-09-28T00:42:21.093Z,57
2022-09-28T00:43:22.991Z,-1
2022-09-28T00:44:26.990Z,57
2022-09-28T00:45:27.917Z,58
2022-09-28T00:46:28.936Z,58
2022-09-28T00:47:30.030Z,57
2022-09-28T00:48:30.930Z,58
2022-09-28T00:49:31.891Z,57
2022-09-28T00:50:32.950Z,57
2022-09-28T00:51:34.110Z,57
2022-09-28T00:52:36.110Z,57
2022-09-28T00:53:38.111Z,57
2022-09-28T00:54:40.030Z,57
2022-09-28T00:55:41.971Z,56
2022-09-28T00:56:42.970Z,57
2022-09-28T00:57:44.032Z,57
2022-09-28T00:58:44.952Z,57
2022-09-28T00:59:45.931Z,57
2022-09-28T01:04:07.730Z,57
2022-09-28T01:05:08.996Z,56
2022-09-28T01:06:10.009Z,57
2022-09-28T01:07:11.055Z,57
2022-09-28T01:08:11.994Z,57
2022-09-28T01:09:13.077Z,56
2022-09-28T01:10:14.015Z,57
2022-09-28T01:11:15.015Z,57
2022-09-28T01:12:16.935Z,57
2022-09-28T01:13:17.955Z,56
2022-09-28T01:14:18.962Z,57
2022-09-28T01:15:19.994Z,56
2022-09-28T01:16:21.086Z,56
2022-09-28T01:17:22.954Z,56
2022-09-28T01:18:23.974Z,56
2022-09-28T01:19:24.983Z,56
2022-09-28T01:20:25.955Z,56
2022-09-28T01:21:26.974Z,56
2022-09-28T01:22:27.957Z,56
2022-09-28T01:23:28.994Z,57
2022-09-28T01:24:29.935Z,57
2022-09-28T01:25:30.957Z,57
2022-09-28T01:26:31.936Z,58
2022-09-28T01:27:32.935Z,57
2022-09-28T01:28:34.047Z,57
2022-09-28T01:29:34.955Z,58
2022-09-28T01:30:36.115Z,58
2022-09-28T01:31:38.038Z,58
2022-09-28T01:32:39.070Z,58
2022-09-28T01:33:39.935Z,58
2022-09-28T01:34:41.042Z,58
2022-09-28T01:35:41.934Z,58
2022-09-28T01:36:42.978Z,58
2022-09-28T01:37:45.014Z,-1
2022-09-28T01:38:47.078Z,58
2022-09-28T01:39:49.011Z,58
2022-09-28T01:40:51.144Z,59
2022-09-28T01:41:52.970Z,58
2022-09-28T01:42:54.035Z,58
2022-09-28T01:43:56.066Z,58
2022-09-28T01:44:57.996Z,59
2022-09-28T01:45:59.041Z,58
2022-09-28T01:46:59.956Z,59
2022-09-28T01:48:01.015Z,59
2022-09-28T01:49:01.981Z,59
2022-09-28T01:50:03.080Z,59
2022-09-28T01:51:03.994Z,59
2022-09-28T01:52:05.017Z,59
2022-09-28T01:53:05.995Z,59
2022-09-28T01:54:06.997Z,59
2022-09-28T01:55:07.947Z,58
2022-09-28T01:56:08.994Z,58
2022-09-28T01:57:09.994Z,58
2022-09-28T01:58:10.995Z,58
2022-09-28T01:59:12.101Z,58
2022-09-28T02:00:13.102Z,58
2022-09-28T02:01:15.099Z,60
2022-09-28T02:02:16.083Z,59
2022-09-28T02:03:17.075Z,59
2022-09-28T02:04:18.015Z,59
2022-09-28T02:05:19.000Z,59
2022-09-28T02:06:19.975Z,59
2022-09-28T02:07:21.027Z,58
2022-09-28T02:08:21.903Z,58
2022-09-28T02:09:22.985Z,58
2022-09-28T02:10:24.075Z,58
2022-09-28T02:11:24.927Z,58
2022-09-28T02:12:25.979Z,58
2022-09-28T02:13:26.994Z,59
2022-09-28T02:14:28.054Z,59
2022-09-28T02:15:29.098Z,59
2022-09-28T02:16:30.062Z,60
2022-09-28T02:17:31.068Z,60
2022-09-28T02:18:31.994Z,60
2022-09-28T02:19:33.034Z,60
2022-09-28T02:20:34.101Z,60
2022-09-28T02:21:34.955Z,60
2022-09-28T02:22:36.034Z,60
2022-09-28T02:23:37.055Z,60
2022-09-28T02:24:38.034Z,59
2022-09-28T02:25:38.978Z,59
2022-09-28T02:26:40.009Z,60
2022-09-28T02:27:41.034Z,60
2022-09-28T02:28:42.054Z,60
2022-09-28T02:29:43.034Z,60
2022-09-28T02:30:44.079Z,60
2022-09-28T02:31:45.196Z,60
2022-09-28T02:32:45.994Z,60
2022-09-28T02:33:47.116Z,60
2022-09-28T02:34:49.002Z,60
2022-09-28T02:35:50.022Z,60
2022-09-28T02:36:50.994Z,60
2022-09-28T02:37:52.019Z,60
2022-09-28T02:38:53.076Z,59
2022-09-28T02:39:54.035Z,60
2022-09-28T02:40:55.054Z,59
2022-09-28T02:41:56.034Z,60
2022-09-28T02:42:57.055Z,60
2022-09-28T02:43:58.162Z,60
2022-09-28T02:45:00.015Z,61
2022-09-28T02:46:01.124Z,59
2022-09-28T02:47:02.035Z,59
2022-09-28T02:48:02.984Z,59
2022-09-28T02:49:20.726Z,59
2022-09-28T02:50:06.256Z,59
2022-09-28T02:51:08.062Z,59
2022-09-28T02:52:09.034Z,59
2022-09-28T02:53:10.014Z,59
2022-09-28T02:54:12.631Z,59
2022-09-28T02:55:12.014Z,58
2022-09-28T02:56:13.055Z,58
2022-09-28T02:57:14.142Z,59
2022-09-28T02:58:16.014Z,59
2022-09-28T02:59:17.090Z,59
2022-09-28T03:00:18.074Z,59
2022-09-28T03:01:19.161Z,58
2022-09-28T03:02:21.221Z,59
2022-09-28T03:03:23.166Z,60
2022-09-28T03:04:25.014Z,59
2022-09-28T03:05:25.994Z,59
2022-09-28T03:06:27.121Z,59
2022-09-28T03:07:28.014Z,60
2022-09-28T03:08:29.035Z,59
2022-09-28T03:09:30.038Z,59
2022-09-28T03:10:31.038Z,58
2022-09-28T03:11:32.034Z,59
2022-09-28T03:12:33.095Z,60
2022-09-28T03:13:34.122Z,60
2022-09-28T03:14:35.996Z,59
2022-09-28T03:15:37.054Z,59
2022-09-28T03:16:38.168Z,60
2022-09-28T03:17:40.016Z,60
2022-09-28T03:18:41.019Z,61
2022-09-28T03:19:42.096Z,61
2022-09-28T03:20:43.055Z,61
2022-09-28T03:21:44.104Z,60
2022-09-28T03:22:55.952Z,61
2022-09-28T03:23:46.075Z,61
2022-09-28T03:24:47.054Z,61
2022-09-28T03:25:48.074Z,61
2022-09-28T03:26:49.050Z,61
2022-09-28T03:27:50.019Z,60
2022-09-28T03:28:51.174Z,60
2022-09-28T03:29:53.037Z,61
2022-09-28T03:30:54.020Z,61
2022-09-28T03:31:55.106Z,60
2022-09-28T03:32:56.062Z,60
2022-09-28T03:33:57.042Z,60
2022-09-28T03:34:58.002Z,60
2022-09-28T03:35:59.057Z,59
2022-09-28T03:37:00.087Z,59
2022-09-28T03:38:01.054Z,59
2022-09-28T03:39:02.036Z,58
2022-09-28T03:40:03.094Z,58
2022-09-28T03:41:04.150Z,58
2022-09-28T03:42:05.075Z,57
2022-09-28T03:43:06.045Z,57
2022-09-28T03:44:07.039Z,59
2022-09-28T03:45:08.067Z,57
2022-09-28T03:46:09.105Z,57
2022-09-28T03:47:10.027Z,57
2022-09-28T03:48:11.088Z,57
2022-09-28T03:49:12.053Z,57
2022-09-28T03:50:13.015Z,56
2022-09-28T03:51:14.078Z,56
2022-09-28T03:52:15.062Z,57
2022-09-28T03:53:16.077Z,57
2022-09-28T03:54:17.042Z,58
2022-09-28T03:55:18.035Z,58
2022-09-28T03:56:19.036Z,57
2022-09-28T03:57:20.033Z,57
2022-09-28T03:58:21.062Z,58
2022-09-28T03:59:22.075Z,57
2022-09-28T04:00:23.075Z,58
2022-09-28T04:01:24.143Z,57
2022-09-28T04:02:25.181Z,57
2022-09-28T04:03:27.096Z,56
2022-09-28T04:04:27.969Z,57
2022-09-28T04:05:29.035Z,58
2022-09-28T04:06:30.055Z,58
2022-09-28T04:07:31.407Z,59
2022-09-28T04:08:31.957Z,59
2022-09-28T04:09:33.015Z,59
2022-09-28T04:10:34.117Z,58
2022-09-28T04:11:53.075Z,59
2022-09-28T04:12:38.048Z,60
2022-09-28T04:13:39.154Z,59
2022-09-28T04:14:40.054Z,60
2022-09-28T04:15:40.999Z,60
2022-09-28T04:16:42.137Z,60
2022-09-28T04:17:43.094Z,60
2022-09-28T04:18:45.194Z,59
2022-09-28T04:19:47.199Z,59
2022-09-28T04:20:49.155Z,58
2022-09-28T04:21:51.456Z,57
2022-09-28T04:22:53.039Z,57
2022-09-28T04:23:54.135Z,56
2022-09-28T04:24:55.074Z,55
2022-09-28T04:25:56.114Z,56
2022-09-28T04:26:57.134Z,55
2022-09-28T04:27:58.001Z,56
2022-09-28T04:29:02.777Z,56
2022-09-28T04:30:01.094Z,55
2022-09-28T04:31:02.124Z,55
2022-09-28T04:32:03.227Z,55
2022-09-28T04:33:05.124Z,54
2022-09-28T04:34:07.157Z,55
2022-09-28T04:35:09.014Z,55
2022-09-28T04:36:10.054Z,55
2022-09-28T04:37:11.074Z,56
2022-09-28T04:38:12.077Z,55
2022-09-28T04:39:13.202Z,55
2022-09-28T04:40:15.224Z,55
2022-09-28T04:41:16.091Z,55
2022-09-28T04:42:17.161Z,54
2022-09-28T04:43:19.075Z,54
2022-09-28T04:44:20.196Z,54
2022-09-28T04:45:22.062Z,54
2022-09-28T04:46:23.053Z,55
2022-09-28T04:47:24.182Z,56
2022-09-28T04:48:26.195Z,55
2022-09-28T04:49:28.184Z,55
2022-09-28T04:50:29.070Z,54
2022-09-28T04:51:30.038Z,53
2022-09-28T04:52:31.135Z,54
2022-09-28T04:53:32.075Z,54
2022-09-28T04:54:33.114Z,54
2022-09-28T04:55:35.151Z,54
2022-09-28T04:56:37.176Z,54
2022-09-28T04:57:39.095Z,54
2022-09-28T04:58:40.155Z,54
2022-09-28T04:59:41.174Z,53
2022-09-28T05:00:42.155Z,54
2022-09-28T05:01:43.074Z,54
2022-09-28T05:02:44.223Z,55
2022-09-28T05:03:46.154Z,56
2022-09-28T05:04:47.215Z,57
2022-09-28T05:05:49.214Z,57
2022-09-28T05:06:51.635Z,56
2022-09-28T05:07:53.080Z,56
2022-09-28T05:08:54.202Z,56
2022-09-28T05:09:55.115Z,56
2022-09-28T05:10:56.114Z,56
2022-09-28T05:11:57.075Z,55
2022-09-28T05:12:58.108Z,55
2022-09-28T05:13:59.114Z,55
2022-09-28T05:15:00.135Z,55
2022-09-28T05:16:05.138Z,55
2022-09-28T05:17:02.171Z,54
2022-09-28T05:18:03.186Z,54
2022-09-28T05:19:04.134Z,53
2022-09-28T05:20:05.174Z,54
2022-09-28T05:21:06.135Z,54
2022-09-28T05:22:07.089Z,54
2022-09-28T05:23:08.077Z,54
2022-09-28T05:24:09.119Z,54
2022-09-28T05:25:10.076Z,54
2022-09-28T05:26:11.064Z,56
2022-09-28T05:27:12.094Z,55
2022-09-28T05:28:13.097Z,54
2022-09-28T05:29:14.319Z,53
2022-09-28T05:30:15.104Z,54
2022-09-28T05:31:16.158Z,55
2022-09-28T05:32:17.044Z,54
2022-09-28T05:33:18.155Z,54
2022-09-28T05:34:19.137Z,54
2022-09-28T05:35:20.067Z,54
2022-09-28T05:36:21.134Z,54
2022-09-28T05:37:22.054Z,54
2022-09-28T05:38:23.074Z,55
2022-09-28T05:39:24.179Z,55
2022-09-28T05:40:25.281Z,55
2022-09-28T05:41:27.074Z,55
2022-09-28T05:42:28.094Z,56
2022-09-28T05:43:29.069Z,55
2022-09-28T05:44:30.134Z,55
2022-09-28T05:45:31.170Z,55
2022-09-28T05:46:32.103Z,55
2022-09-28T05:47:33.102Z,54
2022-09-28T05:48:34.145Z,54
2022-09-28T05:49:35.153Z,54
2022-09-28T05:50:36.154Z,54
2022-09-28T05:51:37.076Z,54
2022-09-28T05:52:38.079Z,54
2022-09-28T05:53:39.136Z,55
2022-09-28T05:54:40.160Z,54
2022-09-28T05:55:41.214Z,52
2022-09-28T05:56:42.177Z,53
2022-09-28T05:57:43.157Z,53
2022-09-28T05:58:44.131Z,53
2022-09-28T05:59:46.117Z,52
2022-09-28T06:00:47.213Z,52
2022-09-28T06:01:48.118Z,52
2022-09-28T06:02:49.110Z,52
2022-09-28T06:03:50.055Z,52
2022-09-28T06:04:51.147Z,52
2022-09-28T06:05:52.575Z,52
2022-09-28T06:06:54.175Z,52
2022-09-28T06:07:55.094Z,52
2022-09-28T06:08:56.115Z,52
2022-09-28T06:09:57.179Z,53
2022-09-28T06:10:58.159Z,53
2022-09-28T06:11:59.035Z,53
2022-09-28T06:13:00.211Z,52
2022-09-28T06:14:01.181Z,52
2022-09-28T06:15:02.216Z,52
2022-09-28T06:16:03.195Z,53
2022-09-28T06:17:04.242Z,52
2022-09-28T06:18:05.107Z,52
2022-09-28T06:19:06.095Z,52
2022-09-28T06:20:07.123Z,52
2022-09-28T06:21:08.194Z,52
2022-09-28T06:22:09.143Z,52
2022-09-28T06:23:10.117Z,52
2022-09-28T06:24:11.155Z,53
2022-09-28T06:25:12.360Z,53
2022-09-28T06:26:14.207Z,52
2022-09-28T06:27:15.140Z,52
2022-09-28T06:28:16.076Z,53
2022-09-28T06:29:19.415Z,53
2022-09-28T06:30:18.215Z,52
2022-09-28T06:31:19.108Z,53
2022-09-28T06:32:20.195Z,54
2022-09-28T06:33:22.214Z,54
2022-09-28T06:34:23.175Z,54
2022-09-28T06:35:24.117Z,54
2022-09-28T06:36:25.167Z,55
2022-09-28T06:37:26.215Z,53
2022-09-28T06:38:27.154Z,54
2022-09-28T06:39:28.172Z,53
2022-09-28T06:40:29.348Z,53
2022-09-28T06:41:30.255Z,53
2022-09-28T06:42:32.122Z,53
2022-09-28T06:43:34.454Z,53
2022-09-28T06:44:35.254Z,55
2022-09-28T06:45:37.134Z,55
2022-09-28T06:46:38.398Z,55
2022-09-28T06:47:40.215Z,54
2022-09-28T06:48:41.347Z,54
2022-09-28T06:49:43.134Z,53
2022-09-28T06:50:44.222Z,54
2022-09-28T06:51:45.166Z,53
2022-09-28T06:52:46.135Z,55
2022-09-28T06:53:47.165Z,53
2022-09-28T06:54:48.177Z,53
2022-09-28T06:55:49.242Z,53
2022-09-28T06:56:51.150Z,53
2022-09-28T06:57:52.636Z,52
2022-09-28T06:58:54.214Z,51
2022-09-28T06:59:55.115Z,50
2022-09-28T07:00:56.197Z,50
2022-09-28T07:01:57.255Z,51
2022-09-28T07:02:58.256Z,51
2022-09-28T07:04:00.194Z,52
2022-09-28T07:05:01.134Z,50
2022-09-28T07:06:02.222Z,51
2022-09-28T07:07:03.255Z,51
2022-09-28T07:08:05.160Z,50
2022-09-28T07:09:20.814Z,50
2022-09-28T07:10:07.178Z,50
2022-09-28T07:11:08.240Z,51
2022-09-28T07:12:09.216Z,50
2022-09-28T07:13:22.355Z,48
2022-09-28T07:14:15.869Z,48
2022-09-28T07:15:12.235Z,48
2022-09-28T07:16:13.636Z,49
2022-09-28T07:17:15.474Z,49
2022-09-28T07:18:16.214Z,49
2022-09-28T07:19:17.158Z,49
2022-09-28T07:20:19.519Z,47
2022-09-28T07:21:26.983Z,47
2022-09-28T07:22:30.776Z,47
2022-09-28T07:23:23.194Z,46
2022-09-28T07:24:24.174Z,44
2022-09-28T07:25:25.139Z,45
2022-09-28T07:26:26.333Z,45
2022-09-28T07:27:28.994Z,45
2022-09-28T07:28:28.155Z,45
2022-09-28T07:29:29.255Z,44
2022-09-28T07:30:30.311Z,45
2022-09-28T07:31:31.246Z,44
2022-09-28T07:32:33.162Z,43
2022-09-28T07:33:34.235Z,43
2022-09-28T07:34:35.194Z,43
2022-09-28T07:35:36.267Z,44
2022-09-28T07:36:38.194Z,44
2022-09-28T07:37:39.294Z,44
2022-09-28T07:38:41.220Z,44
2022-09-28T07:39:42.274Z,43
2022-09-28T07:40:48.140Z,44
2022-09-28T07:41:46.239Z,43
2022-09-28T07:42:47.236Z,43
2022-09-28T07:43:48.275Z,43
2022-09-28T07:44:50.243Z,43
2022-09-28T07:45:52.394Z,42
2022-09-28T07:46:54.234Z,42
2022-09-28T07:47:55.176Z,43
2022-09-28T07:48:56.198Z,43
2022-09-28T07:49:57.197Z,43
2022-09-28T07:50:58.179Z,43
2022-09-28T07:51:59.174Z,43
2022-09-28T07:53:00.215Z,42
2022-09-28T07:54:01.197Z,42
2022-09-28T07:55:06.101Z,42
2022-09-28T07:56:03.256Z,42
2022-09-28T07:57:05.262Z,43
2022-09-28T07:58:06.336Z,43
2022-09-28T07:59:08.355Z,44
2022-09-28T08:00:10.391Z,42
2022-09-28T08:01:12.368Z,42
2022-09-28T08:02:14.412Z,42
2022-09-28T08:03:16.182Z,42
2022-09-28T08:04:17.194Z,42
2022-09-28T08:05:18.215Z,42
2022-09-28T08:06:19.174Z,42
2022-09-28T08:07:23.597Z,42
2022-09-28T08:08:21.276Z,42
2022-09-28T08:09:23.343Z,40
2022-09-28T08:10:25.375Z,40
2022-09-28T08:11:27.375Z,42
2022-09-28T08:12:29.291Z,42
2022-09-28T08:13:31.406Z,42
2022-09-28T08:14:33.355Z,43
2022-09-28T08:15:35.206Z,43
2022-09-28T08:17:38.267Z,40
2022-09-28T08:18:39.274Z,40
2022-09-28T08:19:41.294Z,42
2022-09-28T08:20:43.991Z,40
2022-09-28T08:21:45.179Z,42
2022-09-28T08:22:46.238Z,42
2022-09-28T08:23:47.644Z,42
2022-09-28T08:24:49.266Z,43
2022-09-28T08:25:50.256Z,43
2022-09-28T08:26:51.274Z,43
2022-09-28T08:27:53.360Z,42
2022-09-28T08:28:55.335Z,42
2022-09-28T08:29:57.213Z,43
2022-09-28T08:30:58.291Z,42
2022-09-28T08:32:01.477Z,43
2022-09-28T08:33:01.227Z,42
2022-09-28T08:34:02.302Z,40
2022-09-28T08:35:05.949Z,40
2022-09-28T08:36:05.336Z,40
2022-09-28T08:37:07.315Z,40
2022-09-28T08:38:09.214Z,39
2022-09-28T08:39:10.335Z,42
2022-09-28T08:40:12.282Z,39
2022-09-28T08:41:13.242Z,39
2022-09-28T08:42:14.283Z,40
2022-09-28T08:43:16.262Z,39
2022-09-28T08:44:17.383Z,39
2022-09-28T08:45:19.500Z,39
2022-09-28T08:46:22.721Z,39
2022-09-28T08:47:21.200Z,39
2022-09-28T08:48:22.182Z,40
2022-09-28T08:49:25.600Z,42
2022-09-28T08:50:25.274Z,40
2022-09-28T08:51:26.215Z,40
2022-09-28T08:52:27.242Z,42
2022-09-28T08:53:28.294Z,42
2022-09-28T08:54:29.357Z,42
2022-09-28T08:55:31.376Z,39
2022-09-28T08:56:33.255Z,39
2022-09-28T08:57:34.295Z,40
2022-09-28T08:58:36.333Z,40
2022-09-28T08:59:38.297Z,39
2022-09-28T09:00:39.274Z,39
2022-09-28T09:01:40.436Z,39
2022-09-28T09:02:41.402Z,39
2022-09-28T09:03:43.244Z,40
2022-09-28T09:04:44.282Z,39
2022-09-28T09:05:46.262Z,39
2022-09-28T09:06:48.278Z,39
2022-09-28T09:07:49.254Z,39
2022-09-28T09:08:50.278Z,39
2022-09-28T09:09:51.215Z,40
2022-09-28T09:10:52.208Z,40
2022-09-28T09:11:53.375Z,40
2022-09-28T09:12:55.239Z,39
2022-09-28T09:13:56.240Z,39
2022-09-28T09:14:57.223Z,39
2022-09-28T09:15:58.316Z,39
2022-09-28T09:17:00.045Z,39
2022-09-28T09:18:01.323Z,40
2022-09-28T09:19:03.236Z,38
2022-09-28T09:20:04.349Z,39
2022-09-28T09:21:06.432Z,39
2022-09-28T09:22:08.313Z,39
2022-09-28T09:23:10.235Z,40
2022-09-28T09:24:11.277Z,40
2022-09-28T09:25:12.195Z,40
2022-09-28T09:26:14.913Z,40
2022-09-28T09:27:15.360Z,40
2022-09-28T09:28:17.189Z,39
2022-09-28T09:29:18.412Z,38
2022-09-28T09:30:20.636Z,38
2022-09-28T09:31:22.784Z,39
2022-09-28T09:32:22.236Z,39
2022-09-28T09:33:23.255Z,40
2022-09-28T09:34:24.256Z,39
2022-09-28T09:35:29.088Z,39
2022-09-28T09:36:26.554Z,39
2022-09-28T09:37:28.246Z,39
2022-09-28T09:38:29.275Z,39
2022-09-28T09:39:30.266Z,38
2022-09-28T09:40:31.366Z,38
2022-09-28T09:41:33.217Z,39
2022-09-28T09:42:34.371Z,38
2022-09-28T09:43:36.295Z,38
2022-09-28T09:44:38.379Z,38
2022-09-28T09:45:40.310Z,39
2022-09-28T09:46:41.214Z,38
2022-09-28T09:47:42.243Z,39
2022-09-28T09:48:43.222Z,39
2022-09-28T09:49:44.264Z,38
2022-09-28T09:50:45.276Z,38
2022-09-28T09:51:46.343Z,38
2022-09-28T09:52:47.255Z,39
2022-09-28T09:53:48.354Z,39
2022-09-28T09:54:49.366Z,39
2022-09-28T09:55:51.223Z,38
2022-09-28T09:56:52.255Z,38
2022-09-28T09:57:53.335Z,38
2022-09-28T09:58:54.394Z,38
2022-09-28T09:59:56.252Z,39
2022-09-28T10:00:57.319Z,39
2022-09-28T10:01:58.369Z,38
2022-09-28T10:02:59.406Z,39
2022-09-28T10:04:00.323Z,39
2022-09-28T10:05:01.295Z,39
2022-09-28T10:06:02.355Z,39
2022-09-28T10:07:04.294Z,39
2022-09-28T10:08:05.271Z,38
2022-09-28T10:09:06.395Z,38
2022-09-28T10:10:08.355Z,38
2022-09-28T10:11:10.146Z,38
2022-09-28T10:12:11.337Z,38
2022-09-28T10:13:13.295Z,37
2022-09-28T10:14:14.484Z,37
2022-09-28T10:15:16.420Z,38
2022-09-28T10:16:17.325Z,38
2022-09-28T10:17:18.247Z,38
2022-09-28T10:18:19.295Z,38
2022-09-28T10:19:20.197Z,38
2022-09-28T10:20:21.274Z,38
2022-09-28T10:21:23.374Z,38
2022-09-28T10:22:25.278Z,39
2022-09-28T10:23:26.274Z,39
2022-09-28T10:24:27.334Z,38
2022-09-28T10:25:28.235Z,38
2022-09-28T10:26:29.275Z,39
2022-09-28T10:27:30.224Z,38
2022-09-28T10:28:31.215Z,38
2022-09-28T10:29:32.256Z,38
2022-09-28T10:30:33.481Z,38
2022-09-28T10:31:35.344Z,39
2022-09-28T10:32:36.211Z,38
2022-09-28T10:33:37.246Z,38
2022-09-28T10:34:38.269Z,38
2022-09-28T10:35:39.244Z,38
2022-09-28T10:36:40.574Z,37
2022-09-28T10:37:42.220Z,37
2022-09-28T10:38:43.295Z,37
2022-09-28T10:39:44.343Z,37
2022-09-28T10:40:45.402Z,37
2022-09-28T10:41:46.343Z,37
2022-09-28T10:42:48.254Z,37
2022-09-28T10:43:50.592Z,38
2022-09-28T10:44:50.272Z,37
2022-09-28T10:45:51.347Z,38
2022-09-28T10:46:52.275Z,38
2022-09-28T10:47:53.456Z,39
2022-09-28T10:48:55.242Z,38
2022-09-28T10:49:56.366Z,38
2022-09-28T10:50:57.288Z,37
2022-09-28T10:51:58.296Z,38
2022-09-28T10:52:59.287Z,38
2022-09-28T10:54:00.362Z,38
2022-09-28T10:55:01.328Z,37
2022-09-28T10:56:02.319Z,37
2022-09-28T10:57:03.295Z,37
2022-09-28T10:58:04.263Z,37
2022-09-28T10:59:05.315Z,37
2022-09-28T11:00:06.482Z,38
2022-09-28T11:01:08.313Z,38
2022-09-28T11:02:09.422Z,37
2022-09-28T11:03:11.315Z,36
2022-09-28T11:04:12.274Z,37
2022-09-28T11:05:13.399Z,37
2022-09-28T11:06:15.274Z,37
2022-09-28T11:07:17.196Z,36
2022-09-28T11:08:17.246Z,37
2022-09-28T11:09:18.470Z,38
2022-09-28T11:10:21.943Z,38
2022-09-28T11:11:23.407Z,38
2022-09-28T11:12:25.235Z,38
2022-09-28T11:13:26.248Z,39
2022-09-28T11:14:27.355Z,39
2022-09-28T11:15:28.266Z,39
2022-09-28T11:16:29.298Z,39
2022-09-28T11:17:30.295Z,39
2022-09-28T11:18:31.276Z,39
2022-09-28T11:19:32.376Z,39
2022-09-28T11:20:33.431Z,40
2022-09-28T11:21:35.214Z,42
2022-09-28T11:22:36.298Z,42
2022-09-28T11:23:37.355Z,44
2022-09-28T11:24:39.254Z,43
2022-09-28T11:25:40.334Z,44
2022-09-28T11:26:41.265Z,44
2022-09-28T11:27:42.283Z,44
2022-09-28T11:28:43.254Z,43
2022-09-28T11:29:44.317Z,44
2022-09-28T11:30:45.377Z,44
2022-09-28T11:31:46.404Z,44
2022-09-28T11:32:47.386Z,44
2022-09-28T11:33:49.274Z,45
2022-09-28T11:35:00.625Z,44
2022-09-28T11:35:51.255Z,45
2022-09-28T11:36:52.298Z,45
2022-09-28T11:37:53.396Z,45
2022-09-28T11:38:55.303Z,45
2022-09-28T11:39:56.334Z,44
2022-09-28T11:40:57.362Z,44
2022-09-28T11:41:58.315Z,45
2022-09-28T11:42:59.315Z,45
2022-09-28T11:44:00.316Z,44
2022-09-28T11:45:01.334Z,44
2022-09-28T11:46:02.453Z,44
2022-09-28T11:47:03.354Z,44
2022-09-28T11:48:04.436Z,44
2022-09-28T11:49:06.379Z,44
2022-09-28T11:50:07.394Z,45
2022-09-28T11:51:09.299Z,45
2022-09-28T11:52:10.357Z,46
2022-09-28T11:53:11.357Z,46
2022-09-28T11:54:12.268Z,46
2022-09-28T11:55:13.396Z,46
2022-09-28T11:56:15.254Z,47
2022-09-28T11:57:16.315Z,49
2022-09-28T11:58:17.453Z,48
2022-09-28T11:59:19.255Z,48
2022-09-28T12:00:20.355Z,48
2022-09-28T12:01:21.375Z,48
2022-09-28T12:02:22.736Z,48
2022-09-28T12:03:24.439Z,49
2022-09-28T12:04:25.294Z,49
2022-09-28T12:05:26.315Z,49
2022-09-28T12:06:27.352Z,48
2022-09-28T12:07:28.315Z,48
2022-09-28T12:08:29.266Z,48
2022-09-28T12:09:30.539Z,49
2022-09-28T12:10:32.374Z,49
2022-09-28T12:11:33.287Z,50
2022-09-28T12:12:34.394Z,49
2022-09-28T12:13:35.277Z,48
2022-09-28T12:14:36.416Z,49
2022-09-28T12:15:52.975Z,49
2022-09-28T12:17:03.913Z,49
2022-09-28T12:17:40.502Z,47
2022-09-28T12:18:41.314Z,47
2022-09-28T12:19:42.361Z,47
2022-09-28T12:20:43.415Z,48
2022-09-28T12:21:45.319Z,49
2022-09-28T12:22:47.495Z,49
2022-09-28T12:23:49.455Z,49
2022-09-28T12:24:51.357Z,50
2022-09-28T12:25:52.408Z,49
2022-09-28T12:26:54.369Z,48
2022-09-28T12:27:56.346Z,49
2022-09-28T12:28:57.355Z,49
2022-09-28T12:29:59.515Z,48
2022-09-28T12:31:01.435Z,46
2022-09-28T12:32:03.559Z,46
2022-09-28T12:33:05.440Z,46
2022-09-28T12:34:07.495Z,46
2022-09-28T12:35:09.326Z,46
2022-09-28T12:36:10.275Z,46
2022-09-28T12:37:11.338Z,48
2022-09-28T12:38:12.421Z,47
2022-09-28T12:39:19.291Z,48
2022-09-28T12:40:16.349Z,49
2022-09-28T12:41:17.316Z,48
2022-09-28T12:42:19.436Z,49
2022-09-28T12:43:21.386Z,49
2022-09-28T12:44:23.454Z,50
2022-09-28T12:45:25.370Z,51
2022-09-28T12:46:27.422Z,49
2022-09-28T12:47:29.321Z,49
2022-09-28T12:48:31.458Z,47
2022-09-28T12:50:40.052Z,48
2022-09-28T12:51:37.513Z,48
2022-09-28T12:52:39.337Z,48
2022-09-28T12:53:40.410Z,48
2022-09-28T12:54:42.466Z,49
2022-09-28T12:55:44.697Z,48
2022-09-28T12:56:46.338Z,49
2022-09-28T12:57:47.514Z,53
2022-09-28T12:58:49.397Z,66
2022-09-28T12:59:51.384Z,54
2022-09-28T13:00:53.495Z,50
2022-09-28T13:01:55.507Z,51
2022-09-28T13:02:57.586Z,50
2022-09-28T13:03:59.747Z,49
2022-09-28T13:05:01.434Z,51
2022-09-28T13:06:03.395Z,51
2022-09-28T13:07:05.459Z,51
2022-09-28T13:08:07.542Z,49
2022-09-28T13:09:09.281Z,49
2022-09-28T13:10:10.456Z,49
2022-09-28T13:11:11.326Z,49
2022-09-28T13:12:12.318Z,49
2022-09-28T13:13:13.374Z,49
2022-09-28T13:14:14.433Z,50
2022-09-28T13:15:16.408Z,51
2022-09-28T13:16:17.576Z,49
2022-09-28T13:17:18.354Z,49
2022-09-28T13:18:19.323Z,50
2022-09-28T13:19:20.581Z,50
2022-09-28T13:20:22.381Z,52
2022-09-28T13:21:24.359Z,50
2022-09-28T13:22:26.495Z,52
2022-09-28T13:23:28.534Z,51
2022-09-28T13:24:33.266Z,50
2022-09-28T13:25:32.364Z,50
2022-09-28T13:26:33.477Z,51
2022-09-28T13:27:35.388Z,53
2022-09-28T13:28:36.339Z,53
2022-09-28T13:30:38.489Z,53
2022-09-28T13:31:39.657Z,51
2022-09-28T13:32:41.356Z,50
2022-09-28T13:33:42.389Z,49
2022-09-28T13:34:43.342Z,49
2022-09-28T13:35:44.454Z,49
2022-09-28T13:36:48.222Z,50
2022-09-28T13:37:47.340Z,51
2022-09-28T13:38:48.374Z,51
2022-09-28T13:39:49.376Z,51
2022-09-28T13:40:50.339Z,52
2022-09-28T13:41:51.374Z,51
2022-09-28T13:42:52.434Z,50
2022-09-28T13:43:53.475Z,50
2022-09-28T13:44:55.474Z,50
2022-09-28T13:45:57.478Z,51
2022-09-28T13:46:59.516Z,52
2022-09-28T13:48:01.513Z,53
2022-09-28T13:49:03.449Z,53
2022-09-28T13:50:05.659Z,53
2022-09-28T13:51:07.455Z,53
2022-09-28T13:52:09.519Z,53
2022-09-28T13:53:11.366Z,53
2022-09-28T13:54:12.407Z,54
2022-09-28T13:55:13.417Z,54
2022-09-28T13:56:14.399Z,54
2022-09-28T13:57:16.475Z,54
2022-09-28T13:58:18.401Z,54
2022-09-28T13:59:20.510Z,53
2022-09-28T14:00:22.464Z,53
2022-09-28T14:01:24.552Z,52
2022-09-28T14:02:26.408Z,51
2022-09-28T14:03:27.634Z,51
2022-09-28T14:04:29.476Z,52
2022-09-28T14:05:31.500Z,52
2022-09-28T14:06:33.418Z,52
2022-09-28T14:07:34.350Z,52
2022-09-28T14:08:35.395Z,53
2022-09-28T14:09:36.395Z,53
2022-09-28T14:10:37.341Z,52
2022-09-28T14:11:38.340Z,52
2022-09-28T14:12:39.416Z,52
2022-09-28T14:13:40.466Z,51
2022-09-28T14:14:41.373Z,52
2022-09-28T14:15:42.425Z,53
2022-09-28T14:16:43.362Z,53
2022-09-28T14:17:44.301Z,52
2022-09-28T14:18:45.335Z,53
2022-09-28T14:19:46.295Z,54
2022-09-28T14:20:47.285Z,53
2022-09-28T14:21:48.296Z,53
2022-09-28T14:22:49.346Z,53
2022-09-28T14:23:50.395Z,53
2022-09-28T14:24:51.400Z,53
2022-09-28T14:25:52.346Z,53
2022-09-28T14:26:53.326Z,54
2022-09-28T14:27:54.835Z,54
2022-09-28T14:28:56.440Z,53
2022-09-28T14:29:58.514Z,53
2022-09-28T14:31:00.545Z,54
2022-09-28T14:32:02.354Z,53
2022-09-28T14:33:03.436Z,54
2022-09-28T14:34:04.455Z,55
2022-09-28T14:35:05.474Z,54
2022-09-28T14:36:07.287Z,54
2022-09-28T14:37:08.395Z,53
2022-09-28T14:38:10.455Z,54
2022-09-28T14:39:12.475Z,54
2022-09-28T14:40:14.575Z,55